createdAt,value
2023-01-18T00:01:25.548Z,1.90
2023-01-18T00:06:27.844Z,1.90
2023-01-18T00:11:29.811Z,1.80
2023-01-18T00:16:31.903Z,1.70
2023-01-18T00:21:34.111Z,1.60
2023-01-18T00:26:36.009Z,1.40
2023-01-18T00:31:38.135Z,1.20
2023-01-18T00:36:40.714Z,1.10
2023-01-18T00:42:02.607Z,1.00
2023-01-18T00:47:05.309Z,0.90
2023-01-18T00:52:07.222Z,0.80
2023-01-18T00:57:09.455Z,0.60
2023-01-18T01:02:11.466Z,0.60
2023-01-18T01:07:13.476Z,0.50
2023-01-18T01:12:33.911Z,0.50
2023-01-18T01:17:56.478Z,0.50
2023-01-18T01:23:25.847Z,0.50
2023-01-18T01:28:28.521Z,0.50
2023-01-18T01:33:31.705Z,0.60
2023-01-18T01:38:34.359Z,0.50
2023-01-18T01:43:52.733Z,0.60
2023-01-18T01:48:59.716Z,0.50
2023-01-18T01:54:04.745Z,0.60
2023-01-18T01:59:10.147Z,0.50
2023-01-18T02:04:12.636Z,0.60
2023-01-18T02:09:23.168Z,0.60
2023-01-18T02:14:27.392Z,0.60
2023-01-18T02:19:47.973Z,0.50
2023-01-18T02:25:08.775Z,0.60
2023-01-18T02:30:58.287Z,0.60
2023-01-18T02:36:02.199Z,0.50
2023-01-18T02:41:18.234Z,0.60
2023-01-18T02:46:36.010Z,0.60
2023-01-18T02:51:38.712Z,0.60
2023-01-18T02:56:51.299Z,0.60
2023-01-18T03:01:58.333Z,0.60
2023-01-18T03:07:25.107Z,0.70
2023-01-18T03:12:45.979Z,0.70
2023-01-18T03:17:52.426Z,0.70
2023-01-18T03:23:31.992Z,0.60
2023-01-18T03:28:52.349Z,0.70
2023-01-18T03:34:09.827Z,0.60
2023-01-18T03:39:23.573Z,0.60
2023-01-18T03:44:38.659Z,0.70
2023-01-18T03:49:40.611Z,0.70
2023-01-18T03:55:05.469Z,0.70
2023-01-18T04:00:09.790Z,0.70
2023-01-18T04:05:15.620Z,0.70
2023-01-18T04:10:17.814Z,0.70
2023-01-18T04:15:20.339Z,0.70
2023-01-18T04:20:23.263Z,0.70
2023-01-18T04:25:25.277Z,0.70
2023-01-18T04:30:27.432Z,0.80
2023-01-18T04:35:29.362Z,0.80
2023-01-18T04:40:31.366Z,0.80
2023-01-18T04:45:33.300Z,0.80
2023-01-18T04:50:35.191Z,0.80
2023-01-18T04:55:37.155Z,0.80
2023-01-18T05:00:42.360Z,0.80
2023-01-18T05:05:44.319Z,0.80
2023-01-18T05:10:46.189Z,0.80
2023-01-18T05:15:48.174Z,0.80
2023-01-18T05:20:50.339Z,0.80
2023-01-18T05:25:57.088Z,0.70
2023-01-18T05:30:59.080Z,0.70
2023-01-18T05:36:00.988Z,0.70
2023-01-18T05:41:03.251Z,0.70
2023-01-18T05:46:05.415Z,0.70
2023-01-18T05:51:09.337Z,0.70
2023-01-18T05:56:11.239Z,0.70
2023-01-18T06:01:13.752Z,0.70
2023-01-18T06:06:16.577Z,0.70
2023-01-18T06:11:18.466Z,0.70
2023-01-18T06:16:20.489Z,0.70
2023-01-18T06:21:22.476Z,0.70
2023-01-18T06:26:24.375Z,0.70
2023-01-18T06:31:26.300Z,0.70
2023-01-18T06:36:29.854Z,0.70
2023-01-18T06:41:31.897Z,0.70
2023-01-18T06:46:33.920Z,0.80
2023-01-18T06:51:35.901Z,0.80
2023-01-18T06:56:37.840Z,0.80
2023-01-18T07:01:39.877Z,1.00
2023-01-18T07:06:41.910Z,1.10
2023-01-18T07:11:43.903Z,1.20
2023-01-18T07:16:45.912Z,1.30
2023-01-18T07:21:48.262Z,1.30
2023-01-18T07:26:50.355Z,1.20
2023-01-18T07:31:52.287Z,1.20
2023-01-18T07:36:54.405Z,1.20
2023-01-18T07:41:56.530Z,1.20
2023-01-18T07:46:58.686Z,1.10
2023-01-18T07:52:00.700Z,1.00
2023-01-18T07:57:02.672Z,1.00
2023-01-18T08:02:04.668Z,1.10
2023-01-18T08:07:06.673Z,1.30
2023-01-18T08:12:12.679Z,1.40
2023-01-18T08:17:14.743Z,1.50
2023-01-18T08:22:16.672Z,1.50
2023-01-18T08:27:18.814Z,1.40
2023-01-18T08:32:20.812Z,1.30
2023-01-18T08:37:23.799Z,1.20
2023-01-18T08:42:26.507Z,1.40
2023-01-18T08:47:28.472Z,1.40
2023-01-18T08:52:30.383Z,1.50
2023-01-18T08:57:32.686Z,1.60
2023-01-18T09:02:34.649Z,1.50
2023-01-18T09:07:36.823Z,1.50
2023-01-18T09:12:39.459Z,1.50
2023-01-18T09:17:41.368Z,1.40
2023-01-18T09:22:44.611Z,1.40
2023-01-18T09:27:46.706Z,1.60
2023-01-18T09:32:48.884Z,1.40
2023-01-18T09:38:09.189Z,1.80
2023-01-18T09:44:00.194Z,2.00
2023-01-18T09:49:08.973Z,2.10
2023-01-18T09:55:06.217Z,1.80
2023-01-18T10:00:32.968Z,1.60
2023-01-18T10:05:42.965Z,1.60
2023-01-18T10:10:58.058Z,1.60
2023-01-18T10:16:03.599Z,1.70
2023-01-18T10:21:08.564Z,1.70
2023-01-18T10:26:32.304Z,1.70
2023-01-18T10:32:00.788Z,1.80
2023-01-18T10:37:45.720Z,2.00
2023-01-18T10:43:11.061Z,2.00
2023-01-18T10:48:35.219Z,2.10
2023-01-18T10:53:40.799Z,2.40
2023-01-18T10:59:06.148Z,2.50
2023-01-18T11:04:32.211Z,2.50
2023-01-18T11:15:23.202Z,2.60
2023-01-18T11:20:49.298Z,2.60
2023-01-18T11:26:15.875Z,2.80
2023-01-18T11:31:49.462Z,2.60
2023-01-18T11:37:28.887Z,2.70
2023-01-18T11:42:39.552Z,2.60
2023-01-18T11:48:19.538Z,2.50
2023-01-18T11:54:01.628Z,2.50
2023-01-18T11:59:13.879Z,2.60
2023-01-18T12:04:39.353Z,2.50
2023-01-18T12:09:51.457Z,2.50
2023-01-18T12:15:21.274Z,2.40
2023-01-18T12:20:24.201Z,2.40
2023-01-18T12:26:11.845Z,2.40
2023-01-18T12:31:23.745Z,2.40
2023-01-18T12:36:35.703Z,2.40
2023-01-18T12:41:57.462Z,2.40
2023-01-18T12:47:35.121Z,2.30
2023-01-18T12:52:50.775Z,2.40
2023-01-18T12:57:58.728Z,2.50
2023-01-18T13:03:10.442Z,2.70
2023-01-18T13:08:29.787Z,2.60
2023-01-18T13:13:32.087Z,2.60
2023-01-18T13:18:47.551Z,2.70
2023-01-18T13:24:01.066Z,2.60
2023-01-18T13:29:07.282Z,2.50
2023-01-18T13:34:48.310Z,2.40
2023-01-18T13:39:52.506Z,2.30
2023-01-18T13:45:19.797Z,2.20
2023-01-18T13:50:39.829Z,2.00
2023-01-18T13:56:09.265Z,1.70
2023-01-18T14:01:25.094Z,1.70
2023-01-18T14:06:34.615Z,1.60
2023-01-18T14:11:42.094Z,1.50
2023-01-18T14:16:58.795Z,1.70
2023-01-18T14:23:32.675Z,1.70
2023-01-18T14:28:59.810Z,1.70
2023-01-18T14:35:03.591Z,1.70
2023-01-18T14:40:31.114Z,1.70
2023-01-18T14:45:42.104Z,1.60
2023-01-18T14:50:55.069Z,1.70
2023-01-18T14:56:16.305Z,1.80
2023-01-18T15:07:31.529Z,1.80
2023-01-18T15:12:36.199Z,2.00
2023-01-18T15:17:38.730Z,2.00
2023-01-18T15:22:41.734Z,2.10
2023-01-18T15:27:49.473Z,2.20
2023-01-18T15:32:56.445Z,2.30
2023-01-18T15:37:59.102Z,2.30
2023-01-18T15:43:19.722Z,2.30
2023-01-18T15:48:23.339Z,2.30
2023-01-18T15:53:34.482Z,2.30
2023-01-18T15:58:39.899Z,2.20
2023-01-18T16:03:46.006Z,2.20
2023-01-18T16:08:57.192Z,2.30
2023-01-18T16:14:01.963Z,2.30
2023-01-18T16:19:09.796Z,2.20
2023-01-18T16:24:18.591Z,2.20
2023-01-18T16:29:20.779Z,2.20
2023-01-18T16:34:26.133Z,2.20
2023-01-18T16:39:28.100Z,2.40
2023-01-18T16:44:32.004Z,2.50
2023-01-18T16:49:33.906Z,2.60
2023-01-18T16:54:35.885Z,2.70
2023-01-18T16:59:37.756Z,2.70
2023-01-18T17:04:39.675Z,2.70
2023-01-18T17:09:48.718Z,2.80
2023-01-18T17:14:51.428Z,2.80
2023-01-18T17:19:53.437Z,2.80
2023-01-18T17:24:55.548Z,2.90
2023-01-18T17:29:57.422Z,2.80
2023-01-18T17:34:59.349Z,2.80
2023-01-18T17:40:16.398Z,2.80
2023-01-18T17:45:23.248Z,2.80
2023-01-18T17:50:26.150Z,2.80
2023-01-18T17:55:34.682Z,2.70
2023-01-18T18:00:37.038Z,2.50
2023-01-18T18:05:39.001Z,2.40
2023-01-18T18:10:43.474Z,2.20
2023-01-18T18:15:48.395Z,2.10
2023-01-18T18:21:01.344Z,2.10
2023-01-18T18:26:04.616Z,2.00
2023-01-18T18:31:06.567Z,1.90
2023-01-18T18:36:08.888Z,1.90
2023-01-18T18:41:10.925Z,1.70
2023-01-18T18:46:13.942Z,1.60
2023-01-18T18:51:15.857Z,1.60
2023-01-18T18:56:17.992Z,1.70
2023-01-18T19:01:22.426Z,1.80
2023-01-18T19:06:25.490Z,1.80
2023-01-18T19:11:27.453Z,1.60
2023-01-18T19:16:29.487Z,1.50
2023-01-18T19:21:32.513Z,1.40
2023-01-18T19:26:34.667Z,1.40
2023-01-18T19:31:38.328Z,1.30
2023-01-18T19:36:40.797Z,1.30
2023-01-18T19:41:43.159Z,1.40
2023-01-18T19:46:45.165Z,1.50
2023-01-18T19:51:47.629Z,1.40
2023-01-18T19:56:49.833Z,1.40
2023-01-18T20:01:52.402Z,1.40
2023-01-18T20:06:54.773Z,1.30
2023-01-18T20:11:56.711Z,1.00
2023-01-18T20:16:58.803Z,0.90
2023-01-18T20:22:00.893Z,0.70
2023-01-18T20:27:15.467Z,0.70
2023-01-18T20:32:18.702Z,0.70
2023-01-18T20:37:20.785Z,0.60
2023-01-18T20:42:22.709Z,0.60
2023-01-18T20:47:24.784Z,0.50
2023-01-18T20:52:26.685Z,0.10
2023-01-18T20:57:32.141Z,0.00
2023-01-18T21:02:34.505Z,-0.20
2023-01-18T21:07:36.716Z,-0.10
2023-01-18T21:12:38.708Z,-0.10
2023-01-18T21:17:40.717Z,-0.10
2023-01-18T21:22:42.751Z,-0.10
2023-01-18T21:27:44.652Z,-0.10
2023-01-18T21:32:47.021Z,-0.40
2023-01-18T21:37:48.917Z,-0.30
2023-01-18T21:43:09.391Z,-0.40
2023-01-18T21:48:11.291Z,-0.60
2023-01-18T21:53:32.986Z,-0.80
2023-01-18T21:58:53.133Z,-0.40
2023-01-18T22:04:13.991Z,-0.40
2023-01-18T22:09:16.017Z,-0.30
2023-01-18T22:14:18.148Z,-0.20
2023-01-18T22:19:20.333Z,-0.10
2023-01-18T22:24:22.232Z,-0.20
2023-01-18T22:29:24.156Z,-0.60
2023-01-18T22:34:26.100Z,-0.80
2023-01-18T22:39:28.012Z,-0.50
2023-01-18T22:44:30.033Z,-0.50
2023-01-18T22:49:31.932Z,-0.30
2023-01-18T22:54:33.932Z,-0.20
2023-01-18T22:59:35.856Z,-0.30
2023-01-18T23:04:37.863Z,-0.30
2023-01-18T23:09:40.116Z,-0.20
2023-01-18T23:15:00.413Z,-0.20
2023-01-18T23:20:02.316Z,-0.20
2023-01-18T23:25:04.668Z,-0.30
2023-01-18T23:30:07.197Z,-0.30
2023-01-18T23:35:09.223Z,-0.30
2023-01-18T23:40:30.348Z,-0.10
2023-01-18T23:45:50.753Z,-0.30
2023-01-18T23:51:11.304Z,-0.40
2023-01-18T23:56:13.238Z,-0.20
